sensor_id;sensor_type;location;lat;lon;timestamp;pressure;altitude;pressure_sealevel;temperature;humidity
84051;BME280;74137;50.136;19.040;2024-01-25T00:01:16;98661.69;;;5.81;67.49
84051;BME280;74137;50.136;19.040;2024-01-25T00:03:44;98661.67;;;5.82;67.52
84051;BME280;74137;50.136;19.040;2024-01-25T00:06:15;98665.39;;;5.80;67.42
84051;BME280;74137;50.136;19.040;2024-01-25T00:08:48;98670.45;;;5.80;67.42
84051;BME280;74137;50.136;19.040;2024-01-25T00:11:20;98672.69;;;5.80;67.13
84051;BME280;74137;50.136;19.040;2024-01-25T00:13:48;98670.72;;;5.82;66.87
84051;BME280;74137;50.136;19.040;2024-01-25T00:16:19;98674.98;;;5.84;66.83
84051;BME280;74137;50.136;19.040;2024-01-25T00:18:56;98685.20;;;5.86;66.62
84051;BME280;74137;50.136;19.040;2024-01-25T00:21:29;98682.89;;;5.87;66.57
84051;BME280;74137;50.136;19.040;2024-01-25T00:24:01;98687.61;;;5.87;66.42
84051;BME280;74137;50.136;19.040;2024-01-25T00:26:32;98688.98;;;5.88;66.19
84051;BME280;74137;50.136;19.040;2024-01-25T00:29:02;98686.83;;;5.89;66.09
84051;BME280;74137;50.136;19.040;2024-01-25T00:31:31;98682.59;;;5.90;65.61
84051;BME280;74137;50.136;19.040;2024-01-25T00:34:06;98689.14;;;5.92;65.65
84051;BME280;74137;50.136;19.040;2024-01-25T00:36:39;98688.91;;;5.93;65.41
84051;BME280;74137;50.136;19.040;2024-01-25T00:39:10;98684.40;;;5.93;65.30
84051;BME280;74137;50.136;19.040;2024-01-25T00:41:47;98685.08;;;5.93;65.29
84051;BME280;74137;50.136;19.040;2024-01-25T00:44:21;98686.61;;;5.94;65.30
84051;BME280;74137;50.136;19.040;2024-01-25T00:46:54;98687.49;;;5.94;65.41
84051;BME280;74137;50.136;19.040;2024-01-25T00:49:25;98694.13;;;5.93;65.42
84051;BME280;74137;50.136;19.040;2024-01-25T00:51:59;98707.26;;;5.92;65.55
84051;BME280;74137;50.136;19.040;2024-01-25T00:54:33;98706.67;;;5.89;65.83
84051;BME280;74137;50.136;19.040;2024-01-25T00:57:04;98717.83;;;5.85;65.98
84051;BME280;74137;50.136;19.040;2024-01-25T00:59:35;98719.38;;;5.81;66.27
84051;BME280;74137;50.136;19.040;2024-01-25T01:02:11;98719.58;;;5.75;66.35
84051;BME280;74137;50.136;19.040;2024-01-25T01:04:44;98719.46;;;5.70;66.53
84051;BME280;74137;50.136;19.040;2024-01-25T01:07:18;98720.94;;;5.63;66.70
84051;BME280;74137;50.136;19.040;2024-01-25T01:09:49;98713.60;;;5.59;66.58
84051;BME280;74137;50.136;19.040;2024-01-25T01:12:18;98712.92;;;5.58;66.55
84051;BME280;74137;50.136;19.040;2024-01-25T01:14:46;98710.66;;;5.58;66.46
84051;BME280;74137;50.136;19.040;2024-01-25T01:17:17;98709.03;;;5.59;66.33
84051;BME280;74137;50.136;19.040;2024-01-25T01:19:48;98707.40;;;5.61;66.43
84051;BME280;74137;50.136;19.040;2024-01-25T01:22:17;98704.27;;;5.61;66.39
84051;BME280;74137;50.136;19.040;2024-01-25T01:24:50;98701.53;;;5.60;66.53
84051;BME280;74137;50.136;19.040;2024-01-25T01:27:21;98704.19;;;5.59;66.49
84051;BME280;74137;50.136;19.040;2024-01-25T01:29:51;98704.11;;;5.56;66.46
84051;BME280;74137;50.136;19.040;2024-01-25T01:32:20;98703.48;;;5.55;66.46
84051;BME280;74137;50.136;19.040;2024-01-25T01:34:50;98702.84;;;5.53;66.45
84051;BME280;74137;50.136;19.040;2024-01-25T01:37:24;98706.36;;;5.52;66.35
84051;BME280;74137;50.136;19.040;2024-01-25T01:39:54;98714.70;;;5.53;66.29
84051;BME280;74137;50.136;19.040;2024-01-25T01:42:24;98711.16;;;5.55;66.16
84051;BME280;74137;50.136;19.040;2024-01-25T01:44:52;98703.95;;;5.56;66.05
84051;BME280;74137;50.136;19.040;2024-01-25T01:47:20;98704.55;;;5.59;65.90
84051;BME280;74137;50.136;19.040;2024-01-25T01:49:51;98703.73;;;5.62;65.68
84051;BME280;74137;50.136;19.040;2024-01-25T01:52:21;98703.96;;;5.65;65.63
84051;BME280;74137;50.136;19.040;2024-01-25T01:54:50;98707.17;;;5.68;65.13
84051;BME280;74137;50.136;19.040;2024-01-25T01:57:18;98705.12;;;5.71;65.09
84051;BME280;74137;50.136;19.040;2024-01-25T01:59:49;98703.09;;;5.74;64.66
84051;BME280;74137;50.136;19.040;2024-01-25T02:02:18;98705.22;;;5.77;64.80
84051;BME280;74137;50.136;19.040;2024-01-25T02:04:47;98703.77;;;5.79;64.87
84051;BME280;74137;50.136;19.040;2024-01-25T02:07:18;98701.85;;;5.79;64.61
84051;BME280;74137;50.136;19.040;2024-01-25T02:09:54;98697.48;;;5.79;64.65
84051;BME280;74137;50.136;19.040;2024-01-25T02:12:22;98699.61;;;5.79;64.34
84051;BME280;74137;50.136;19.040;2024-01-25T02:14:50;98702.31;;;5.80;64.08
84051;BME280;74137;50.136;19.040;2024-01-25T02:17:24;98696.15;;;5.82;64.19
84051;BME280;74137;50.136;19.040;2024-01-25T02:19:55;98694.09;;;5.81;64.10
84051;BME280;74137;50.136;19.040;2024-01-25T02:22:26;98692.73;;;5.80;63.93
84051;BME280;74137;50.136;19.040;2024-01-25T02:24:59;98689.99;;;5.79;63.55
84051;BME280;74137;50.136;19.040;2024-01-25T02:27:32;98692.90;;;5.80;63.39
84051;BME280;74137;50.136;19.040;2024-01-25T02:30:01;98689.87;;;5.83;62.92
84051;BME280;74137;50.136;19.040;2024-01-25T02:32:34;98684.54;;;5.86;62.12
84051;BME280;74137;50.136;19.040;2024-01-25T02:35:04;98686.50;;;5.88;62.15
84051;BME280;74137;50.136;19.040;2024-01-25T02:37:40;98685.40;;;5.90;61.85
84051;BME280;74137;50.136;19.040;2024-01-25T02:40:11;98686.92;;;5.91;61.44
84051;BME280;74137;50.136;19.040;2024-01-25T02:42:42;98686.09;;;5.90;61.62
84051;BME280;74137;50.136;19.040;2024-01-25T02:45:12;98677.08;;;5.89;61.04
84051;BME280;74137;50.136;19.040;2024-01-25T02:47:45;98679.88;;;5.88;61.21
84051;BME280;74137;50.136;19.040;2024-01-25T02:50:16;98681.99;;;5.88;61.11
84051;BME280;74137;50.136;19.040;2024-01-25T02:52:46;98682.85;;;5.88;60.99
84051;BME280;74137;50.136;19.040;2024-01-25T02:55:20;98674.84;;;5.88;60.64
84051;BME280;74137;50.136;19.040;2024-01-25T02:57:51;98673.39;;;5.89;60.76
84051;BME280;74137;50.136;19.040;2024-01-25T03:00:21;98677.77;;;5.89;60.81
84051;BME280;74137;50.136;19.040;2024-01-25T03:02:52;98678.91;;;5.86;61.17
84051;BME280;74137;50.136;19.040;2024-01-25T03:05:20;98676.77;;;5.83;61.12
84051;BME280;74137;50.136;19.040;2024-01-25T03:07:48;98681.70;;;5.82;61.00
84051;BME280;74137;50.136;19.040;2024-01-25T03:10:19;98685.02;;;5.82;61.12
84051;BME280;74137;50.136;19.040;2024-01-25T03:12:48;98687.99;;;5.81;61.18
84051;BME280;74137;50.136;19.040;2024-01-25T03:15:17;98687.46;;;5.82;61.02
84051;BME280;74137;50.136;19.040;2024-01-25T03:17:45;98691.11;;;5.82;61.15
84051;BME280;74137;50.136;19.040;2024-01-25T03:20:16;98695.15;;;5.81;61.40
84051;BME280;74137;50.136;19.040;2024-01-25T03:22:47;98699.52;;;5.80;61.25
84051;BME280;74137;50.136;19.040;2024-01-25T03:25:20;98708.13;;;5.79;60.74
84051;BME280;74137;50.136;19.040;2024-01-25T03:27:53;98706.17;;;5.80;60.77
84051;BME280;74137;50.136;19.040;2024-01-25T03:30:26;98713.67;;;5.79;61.01
84051;BME280;74137;50.136;19.040;2024-01-25T03:32:59;98712.11;;;5.79;61.09
84051;BME280;74137;50.136;19.040;2024-01-25T03:35:32;98711.95;;;5.79;61.02
84051;BME280;74137;50.136;19.040;2024-01-25T03:38:02;98713.70;;;5.78;60.81
84051;BME280;74137;50.136;19.040;2024-01-25T03:40:33;98708.30;;;5.79;60.89
84051;BME280;74137;50.136;19.040;2024-01-25T03:43:01;98717.59;;;5.78;61.10
84051;BME280;74137;50.136;19.040;2024-01-25T03:45:50;98714.85;;;5.76;60.98
84051;BME280;74137;50.136;19.040;2024-01-25T03:48:21;98710.92;;;5.74;61.12
84051;BME280;74137;50.136;19.040;2024-01-25T03:50:54;98707.32;;;5.72;61.02
84051;BME280;74137;50.136;19.040;2024-01-25T03:53:24;98704.71;;;5.72;60.83
84051;BME280;74137;50.136;19.040;2024-01-25T03:55:55;98704.70;;;5.73;61.09
84051;BME280;74137;50.136;19.040;2024-01-25T03:58:28;98701.39;;;5.73;61.26
84051;BME280;74137;50.136;19.040;2024-01-25T04:01:02;98697.61;;;5.71;61.03
84051;BME280;74137;50.136;19.040;2024-01-25T04:03:31;98701.66;;;5.70;61.07
84051;BME280;74137;50.136;19.040;2024-01-25T04:06:04;98702.78;;;5.69;61.09
84051;BME280;74137;50.136;19.040;2024-01-25T04:08:38;98707.17;;;5.68;61.32
84051;BME280;74137;50.136;19.040;2024-01-25T04:11:11;98706.87;;;5.67;61.27
84051;BME280;74137;50.136;19.040;2024-01-25T04:13:43;98703.40;;;5.66;61.62
84051;BME280;74137;50.136;19.040;2024-01-25T04:16:16;98709.34;;;5.65;61.63
84051;BME280;74137;50.136;19.040;2024-01-25T04:18:49;98703.30;;;5.64;61.86
84051;BME280;74137;50.136;19.040;2024-01-25T04:21:20;98704.22;;;5.63;61.91
84051;BME280;74137;50.136;19.040;2024-01-25T04:23:55;98707.60;;;5.61;62.07
84051;BME280;74137;50.136;19.040;2024-01-25T04:26:31;98708.01;;;5.59;62.22
84051;BME280;74137;50.136;19.040;2024-01-25T04:29:04;98708.82;;;5.56;62.09
84051;BME280;74137;50.136;19.040;2024-01-25T04:31:34;98718.46;;;5.55;62.32
84051;BME280;74137;50.136;19.040;2024-01-25T04:34:09;98718.50;;;5.54;62.63
84051;BME280;74137;50.136;19.040;2024-01-25T04:36:40;98715.58;;;5.53;62.79
84051;BME280;74137;50.136;19.040;2024-01-25T04:39:13;98711.98;;;5.51;62.98
84051;BME280;74137;50.136;19.040;2024-01-25T04:41:43;98712.06;;;5.49;63.04
84051;BME280;74137;50.136;19.040;2024-01-25T04:44:16;98702.94;;;5.46;62.96
84051;BME280;74137;50.136;19.040;2024-01-25T04:46:46;98706.63;;;5.46;63.05
84051;BME280;74137;50.136;19.040;2024-01-25T04:49:17;98706.66;;;5.45;63.09
84051;BME280;74137;50.136;19.040;2024-01-25T04:51:51;98700.91;;;5.45;63.02
84051;BME280;74137;50.136;19.040;2024-01-25T04:54:26;98701.77;;;5.45;63.12
84051;BME280;74137;50.136;19.040;2024-01-25T04:56:54;98700.56;;;5.45;62.82
84051;BME280;74137;50.136;19.040;2024-01-25T04:59:24;98703.13;;;5.46;62.98
84051;BME280;74137;50.136;19.040;2024-01-25T05:02:00;98703.67;;;5.45;63.25
84051;BME280;74137;50.136;19.040;2024-01-25T05:04:33;98703.03;;;5.43;63.47
84051;BME280;74137;50.136;19.040;2024-01-25T05:07:03;98702.25;;;5.41;63.22
84051;BME280;74137;50.136;19.040;2024-01-25T05:09:34;98705.04;;;5.41;63.10
84051;BME280;74137;50.136;19.040;2024-01-25T05:12:07;98694.98;;;5.40;63.13
84051;BME280;74137;50.136;19.040;2024-01-25T05:14:42;98697.84;;;5.42;63.10
84051;BME280;74137;50.136;19.040;2024-01-25T05:17:15;98686.23;;;5.41;63.23
84051;BME280;74137;50.136;19.040;2024-01-25T05:19:45;98687.48;;;5.41;63.22
84051;BME280;74137;50.136;19.040;2024-01-25T05:22:14;98683.70;;;5.39;62.99
84051;BME280;74137;50.136;19.040;2024-01-25T05:24:45;98684.40;;;5.39;63.02
84051;BME280;74137;50.136;19.040;2024-01-25T05:27:19;98684.61;;;5.38;63.14
84051;BME280;74137;50.136;19.040;2024-01-25T05:29:50;98685.70;;;5.37;63.16
84051;BME280;74137;50.136;19.040;2024-01-25T05:32:20;98686.41;;;5.37;63.04
84051;BME280;74137;50.136;19.040;2024-01-25T05:34:49;98683.48;;;5.36;62.97
84051;BME280;74137;50.136;19.040;2024-01-25T05:37:17;98688.84;;;5.37;62.90
84051;BME280;74137;50.136;19.040;2024-01-25T05:39:53;98688.25;;;5.38;62.84
84051;BME280;74137;50.136;19.040;2024-01-25T05:42:23;98697.12;;;5.39;62.97
84051;BME280;74137;50.136;19.040;2024-01-25T05:44:51;98694.66;;;5.39;62.88
84051;BME280;74137;50.136;19.040;2024-01-25T05:47:24;98692.56;;;5.40;62.86
84051;BME280;74137;50.136;19.040;2024-01-25T05:49:57;98692.41;;;5.39;62.78
84051;BME280;74137;50.136;19.040;2024-01-25T05:52:28;98687.33;;;5.40;62.77
84051;BME280;74137;50.136;19.040;2024-01-25T05:54:59;98682.07;;;5.41;62.83
84051;BME280;74137;50.136;19.040;2024-01-25T05:57:35;98684.70;;;5.40;63.02
84051;BME280;74137;50.136;19.040;2024-01-25T06:00:05;98685.45;;;5.39;63.20
84051;BME280;74137;50.136;19.040;2024-01-25T06:02:38;98682.40;;;5.37;63.29
84051;BME280;74137;50.136;19.040;2024-01-25T06:05:12;98683.83;;;5.36;63.03
84051;BME280;74137;50.136;19.040;2024-01-25T06:07:45;98673.20;;;5.36;63.13
84051;BME280;74137;50.136;19.040;2024-01-25T06:10:14;98674.09;;;5.36;63.27
84051;BME280;74137;50.136;19.040;2024-01-25T06:12:49;98675.35;;;5.35;63.46
84051;BME280;74137;50.136;19.040;2024-01-25T06:15:33;98667.56;;;5.34;63.37
84051;BME280;74137;50.136;19.040;2024-01-25T06:18:03;98677.70;;;5.32;63.40
84051;BME280;74137;50.136;19.040;2024-01-25T06:20:38;98674.91;;;5.32;63.46
84051;BME280;74137;50.136;19.040;2024-01-25T06:23:09;98675.87;;;5.34;63.28
84051;BME280;74137;50.136;19.040;2024-01-25T06:25:39;98677.98;;;5.34;63.39
84051;BME280;74137;50.136;19.040;2024-01-25T06:28:09;98680.94;;;5.34;63.34
84051;BME280;74137;50.136;19.040;2024-01-25T06:30:38;98673.65;;;5.33;63.10
84051;BME280;74137;50.136;19.040;2024-01-25T06:33:11;98676.46;;;5.33;63.20
84051;BME280;74137;50.136;19.040;2024-01-25T06:35:40;98676.67;;;5.32;63.02
84051;BME280;74137;50.136;19.040;2024-01-25T06:38:10;98678.27;;;5.31;62.96
84051;BME280;74137;50.136;19.040;2024-01-25T06:40:46;98674.77;;;5.32;62.99
84051;BME280;74137;50.136;19.040;2024-01-25T06:43:18;98674.34;;;5.34;62.70
84051;BME280;74137;50.136;19.040;2024-01-25T06:45:47;98680.20;;;5.35;62.97
84051;BME280;74137;50.136;19.040;2024-01-25T06:48:15;98682.30;;;5.35;62.89
84051;BME280;74137;50.136;19.040;2024-01-25T06:50:49;98689.23;;;5.36;62.92
84051;BME280;74137;50.136;19.040;2024-01-25T06:53:23;98687.64;;;5.37;62.78
84051;BME280;74137;50.136;19.040;2024-01-25T06:55:54;98692.77;;;5.39;62.57
84051;BME280;74137;50.136;19.040;2024-01-25T06:58:22;98692.33;;;5.41;62.76
84051;BME280;74137;50.136;19.040;2024-01-25T07:00:57;98693.13;;;5.43;62.93
84051;BME280;74137;50.136;19.040;2024-01-25T07:03:26;98695.53;;;5.44;62.62
84051;BME280;74137;50.136;19.040;2024-01-25T07:05:55;98701.58;;;5.46;62.86
84051;BME280;74137;50.136;19.040;2024-01-25T07:08:28;98701.34;;;5.47;62.40
84051;BME280;74137;50.136;19.040;2024-01-25T07:10:59;98703.05;;;5.48;62.73
84051;BME280;74137;50.136;19.040;2024-01-25T07:13:32;98720.06;;;5.49;62.88
84051;BME280;74137;50.136;19.040;2024-01-25T07:16:05;98713.96;;;5.49;63.10
84051;BME280;74137;50.136;19.040;2024-01-25T07:18:38;98710.04;;;5.48;63.09
84051;BME280;74137;50.136;19.040;2024-01-25T07:21:09;98709.52;;;5.47;63.18
84051;BME280;74137;50.136;19.040;2024-01-25T07:23:39;98715.60;;;5.48;63.11
84051;BME280;74137;50.136;19.040;2024-01-25T07:26:08;98732.42;;;5.49;63.08
84051;BME280;74137;50.136;19.040;2024-01-25T07:28:39;98728.78;;;5.49;63.23
84051;BME280;74137;50.136;19.040;2024-01-25T07:31:11;98740.13;;;5.48;63.34
84051;BME280;74137;50.136;19.040;2024-01-25T07:33:40;98739.48;;;5.47;63.39
84051;BME280;74137;50.136;19.040;2024-01-25T07:36:08;98742.72;;;5.44;63.53
84051;BME280;74137;50.136;19.040;2024-01-25T07:38:41;98750.27;;;5.42;63.75
84051;BME280;74137;50.136;19.040;2024-01-25T07:41:12;98745.83;;;5.40;64.10
84051;BME280;74137;50.136;19.040;2024-01-25T07:43:40;98746.08;;;5.38;64.09
84051;BME280;74137;50.136;19.040;2024-01-25T07:46:09;98753.13;;;5.36;64.32
84051;BME280;74137;50.136;19.040;2024-01-25T07:48:42;98754.40;;;5.34;64.51
84051;BME280;74137;50.136;19.040;2024-01-25T07:51:14;98758.28;;;5.33;64.60
84051;BME280;74137;50.136;19.040;2024-01-25T07:53:42;98764.54;;;5.33;64.63
84051;BME280;74137;50.136;19.040;2024-01-25T07:56:12;98757.92;;;5.33;64.77
84051;BME280;74137;50.136;19.040;2024-01-25T07:58:43;98752.90;;;5.32;64.77
84051;BME280;74137;50.136;19.040;2024-01-25T08:01:11;98755.88;;;5.32;64.96
84051;BME280;74137;50.136;19.040;2024-01-25T08:03:43;98754.63;;;5.33;64.73
84051;BME280;74137;50.136;19.040;2024-01-25T08:06:17;98750.77;;;5.33;64.69
84051;BME280;74137;50.136;19.040;2024-01-25T08:08:48;98760.48;;;5.34;64.74
84051;BME280;74137;50.136;19.040;2024-01-25T08:11:16;98756.79;;;5.35;64.77
84051;BME280;74137;50.136;19.040;2024-01-25T08:13:50;98755.17;;;5.37;64.99
84051;BME280;74137;50.136;19.040;2024-01-25T08:16:20;98749.89;;;5.38;64.86
84051;BME280;74137;50.136;19.040;2024-01-25T08:18:53;98747.70;;;5.41;64.45
84051;BME280;74137;50.136;19.040;2024-01-25T08:21:25;98750.27;;;5.42;64.47
84051;BME280;74137;50.136;19.040;2024-01-25T08:23:56;98757.85;;;5.45;64.28
84051;BME280;74137;50.136;19.040;2024-01-25T08:26:26;98752.94;;;5.46;64.07
84051;BME280;74137;50.136;19.040;2024-01-25T08:28:57;98761.89;;;5.48;63.83
84051;BME280;74137;50.136;19.040;2024-01-25T08:31:30;98759.92;;;5.50;63.97
84051;BME280;74137;50.136;19.040;2024-01-25T08:34:08;98767.39;;;5.50;64.08
84051;BME280;74137;50.136;19.040;2024-01-25T08:36:44;98763.88;;;5.51;63.96
84051;BME280;74137;50.136;19.040;2024-01-25T08:39:16;98761.08;;;5.51;64.20
84051;BME280;74137;50.136;19.040;2024-01-25T08:41:47;98762.64;;;5.52;64.14
84051;BME280;74137;50.136;19.040;2024-01-25T08:44:18;98775.44;;;5.53;64.23
84051;BME280;74137;50.136;19.040;2024-01-25T08:46:48;98771.99;;;5.53;64.13
84051;BME280;74137;50.136;19.040;2024-01-25T08:49:17;98767.83;;;5.53;63.84
84051;BME280;74137;50.136;19.040;2024-01-25T08:51:48;98771.25;;;5.54;62.82
84051;BME280;74137;50.136;19.040;2024-01-25T08:54:18;98766.95;;;5.57;63.20
84051;BME280;74137;50.136;19.040;2024-01-25T08:56:49;98765.44;;;5.60;63.11
84051;BME280;74137;50.136;19.040;2024-01-25T08:59:23;98763.59;;;5.64;63.27
84051;BME280;74137;50.136;19.040;2024-01-25T09:01:54;98769.95;;;5.66;62.97
84051;BME280;74137;50.136;19.040;2024-01-25T09:04:22;98770.64;;;5.66;62.53
84051;BME280;74137;50.136;19.040;2024-01-25T09:06:53;98767.55;;;5.69;62.72
84051;BME280;74137;50.136;19.040;2024-01-25T09:09:24;98761.14;;;5.73;62.35
84051;BME280;74137;50.136;19.040;2024-01-25T09:11:52;98762.02;;;5.77;62.08
84051;BME280;74137;50.136;19.040;2024-01-25T09:14:23;98759.77;;;5.81;61.45
84051;BME280;74137;50.136;19.040;2024-01-25T09:16:51;98766.90;;;5.86;61.63
84051;BME280;74137;50.136;19.040;2024-01-25T09:19:19;98774.25;;;5.90;61.58
84051;BME280;74137;50.136;19.040;2024-01-25T09:21:53;98768.94;;;5.92;61.52
84051;BME280;74137;50.136;19.040;2024-01-25T09:24:23;98770.96;;;5.94;61.24
84051;BME280;74137;50.136;19.040;2024-01-25T09:26:54;98779.13;;;5.94;61.13
84051;BME280;74137;50.136;19.040;2024-01-25T09:29:26;98775.13;;;5.94;60.67
84051;BME280;74137;50.136;19.040;2024-01-25T09:31:59;98786.61;;;5.95;60.80
84051;BME280;74137;50.136;19.040;2024-01-25T09:34:27;98781.54;;;5.95;60.97
84051;BME280;74137;50.136;19.040;2024-01-25T09:37:00;98785.61;;;5.93;60.99
84051;BME280;74137;50.136;19.040;2024-01-25T09:39:32;98785.23;;;5.94;61.43
84051;BME280;74137;50.136;19.040;2024-01-25T09:42:05;98788.73;;;5.94;61.25
84051;BME280;74137;50.136;19.040;2024-01-25T09:44:36;98788.98;;;5.92;61.21
84051;BME280;74137;50.136;19.040;2024-01-25T09:47:12;98797.61;;;5.90;61.38
84051;BME280;74137;50.136;19.040;2024-01-25T09:49:44;98802.58;;;5.87;61.39
84051;BME280;74137;50.136;19.040;2024-01-25T09:52:13;98800.41;;;5.85;61.51
84051;BME280;74137;50.136;19.040;2024-01-25T09:54:43;98802.07;;;5.82;61.55
84051;BME280;74137;50.136;19.040;2024-01-25T09:57:20;98806.38;;;5.79;61.79
84051;BME280;74137;50.136;19.040;2024-01-25T09:59:50;98801.54;;;5.78;61.75
84051;BME280;74137;50.136;19.040;2024-01-25T10:02:21;98789.59;;;5.76;61.67
84051;BME280;74137;50.136;19.040;2024-01-25T10:04:53;98789.24;;;5.76;61.37
84051;BME280;74137;50.136;19.040;2024-01-25T10:07:40;98791.00;;;5.75;60.97
84051;BME280;74137;50.136;19.040;2024-01-25T10:10:13;98787.23;;;5.78;61.25
84051;BME280;74137;50.136;19.040;2024-01-25T10:12:44;98793.05;;;5.81;60.81
84051;BME280;74137;50.136;19.040;2024-01-25T10:15:12;98788.69;;;5.86;60.36
84051;BME280;74137;50.136;19.040;2024-01-25T10:17:43;98787.23;;;5.92;59.98
84051;BME280;74137;50.136;19.040;2024-01-25T10:20:32;98795.73;;;5.98;59.89
84051;BME280;74137;50.136;19.040;2024-01-25T10:23:02;98797.64;;;6.03;59.20
84051;BME280;74137;50.136;19.040;2024-01-25T10:25:34;98801.21;;;6.10;59.26
84051;BME280;74137;50.136;19.040;2024-01-25T10:28:10;98794.90;;;6.15;59.17
84051;BME280;74137;50.136;19.040;2024-01-25T10:30:44;98794.23;;;6.19;59.35
84051;BME280;74137;50.136;19.040;2024-01-25T10:33:18;98807.20;;;6.22;59.42
84051;BME280;74137;50.136;19.040;2024-01-25T10:35:50;98805.97;;;6.22;59.05
84051;BME280;74137;50.136;19.040;2024-01-25T10:38:22;98815.27;;;6.25;58.56
84051;BME280;74137;50.136;19.040;2024-01-25T10:40:52;98821.95;;;6.28;58.81
84051;BME280;74137;50.136;19.040;2024-01-25T10:43:21;98812.41;;;6.31;58.80
84051;BME280;74137;50.136;19.040;2024-01-25T10:45:54;98801.30;;;6.34;58.43
84051;BME280;74137;50.136;19.040;2024-01-25T10:48:30;98804.04;;;6.35;58.30
84051;BME280;74137;50.136;19.040;2024-01-25T10:51:04;98802.33;;;6.34;57.67
84051;BME280;74137;50.136;19.040;2024-01-25T10:53:36;98807.83;;;6.32;58.16
84051;BME280;74137;50.136;19.040;2024-01-25T10:56:05;98810.52;;;6.30;58.07
84051;BME280;74137;50.136;19.040;2024-01-25T10:58:40;98809.98;;;6.26;58.42
84051;BME280;74137;50.136;19.040;2024-01-25T11:01:11;98816.40;;;6.23;58.48
84051;BME280;74137;50.136;19.040;2024-01-25T11:03:46;98819.48;;;6.20;58.89
84051;BME280;74137;50.136;19.040;2024-01-25T11:06:23;98821.48;;;6.17;58.54
84051;BME280;74137;50.136;19.040;2024-01-25T11:09:08;98818.40;;;6.16;58.76
84051;BME280;74137;50.136;19.040;2024-01-25T11:11:44;98820.73;;;6.14;59.00
84051;BME280;74137;50.136;19.040;2024-01-25T11:14:19;98824.14;;;6.12;58.84
84051;BME280;74137;50.136;19.040;2024-01-25T11:16:57;98829.61;;;6.10;58.69
84051;BME280;74137;50.136;19.040;2024-01-25T11:19:28;98826.20;;;6.08;58.47
84051;BME280;74137;50.136;19.040;2024-01-25T11:21:56;98828.48;;;6.08;58.17
84051;BME280;74137;50.136;19.040;2024-01-25T11:24:29;98831.08;;;6.08;58.29
84051;BME280;74137;50.136;19.040;2024-01-25T11:27:00;98830.06;;;6.12;58.48
84051;BME280;74137;50.136;19.040;2024-01-25T11:29:31;98831.01;;;6.14;58.06
84051;BME280;74137;50.136;19.040;2024-01-25T11:32:03;98831.08;;;6.18;58.16
84051;BME280;74137;50.136;19.040;2024-01-25T11:34:34;98829.92;;;6.21;58.22
84051;BME280;74137;50.136;19.040;2024-01-25T11:37:08;98839.63;;;6.22;58.19
84051;BME280;74137;50.136;19.040;2024-01-25T11:39:39;98841.23;;;6.21;57.77
84051;BME280;74137;50.136;19.040;2024-01-25T11:42:07;98837.45;;;6.20;57.84
84051;BME280;74137;50.136;19.040;2024-01-25T11:44:40;98849.57;;;6.17;57.53
84051;BME280;74137;50.136;19.040;2024-01-25T11:47:09;98857.65;;;6.15;57.40
84051;BME280;74137;50.136;19.040;2024-01-25T11:49:40;98862.26;;;6.13;57.64
84051;BME280;74137;50.136;19.040;2024-01-25T11:52:08;98861.45;;;6.12;57.80
84051;BME280;74137;50.136;19.040;2024-01-25T11:54:41;98869.69;;;6.10;57.38
84051;BME280;74137;50.136;19.040;2024-01-25T11:57:14;98868.47;;;6.10;57.86
84051;BME280;74137;50.136;19.040;2024-01-25T11:59:42;98869.02;;;6.09;58.17
84051;BME280;74137;50.136;19.040;2024-01-25T12:02:13;98877.20;;;6.10;58.42
84051;BME280;74137;50.136;19.040;2024-01-25T12:04:42;98881.86;;;6.11;58.63
84051;BME280;74137;50.136;19.040;2024-01-25T12:07:12;98880.05;;;6.13;58.54
84051;BME280;74137;50.136;19.040;2024-01-25T12:09:45;98885.11;;;6.12;58.59
84051;BME280;74137;50.136;19.040;2024-01-25T12:12:24;98890.00;;;6.12;58.91
84051;BME280;74137;50.136;19.040;2024-01-25T12:15:00;98897.11;;;6.13;59.22
84051;BME280;74137;50.136;19.040;2024-01-25T12:17:31;98898.96;;;6.15;59.02
84051;BME280;74137;50.136;19.040;2024-01-25T12:20:05;98903.70;;;6.15;59.30
84051;BME280;74137;50.136;19.040;2024-01-25T12:22:39;98911.83;;;6.11;59.90
84051;BME280;74137;50.136;19.040;2024-01-25T12:25:09;98906.23;;;6.07;60.25
84051;BME280;74137;50.136;19.040;2024-01-25T12:27:41;98907.39;;;6.04;60.55
84051;BME280;74137;50.136;19.040;2024-01-25T12:30:12;98905.55;;;6.02;60.88
84051;BME280;74137;50.136;19.040;2024-01-25T12:32:40;98904.72;;;6.01;60.66
84051;BME280;74137;50.136;19.040;2024-01-25T12:35:11;98910.14;;;6.01;60.77
84051;BME280;74137;50.136;19.040;2024-01-25T12:37:40;98913.92;;;6.02;60.50
84051;BME280;74137;50.136;19.040;2024-01-25T12:40:11;98909.19;;;6.03;60.60
84051;BME280;74137;50.136;19.040;2024-01-25T12:42:41;98906.37;;;6.04;60.58
84051;BME280;74137;50.136;19.040;2024-01-25T12:45:12;98896.98;;;6.03;60.37
84051;BME280;74137;50.136;19.040;2024-01-25T12:47:42;98902.73;;;6.03;60.38
84051;BME280;74137;50.136;19.040;2024-01-25T12:50:11;98903.98;;;6.02;60.66
84051;BME280;74137;50.136;19.040;2024-01-25T12:52:39;98904.66;;;6.02;60.45
84051;BME280;74137;50.136;19.040;2024-01-25T12:55:09;98912.55;;;6.02;60.64
84051;BME280;74137;50.136;19.040;2024-01-25T12:57:41;98912.47;;;5.99;60.58
84051;BME280;74137;50.136;19.040;2024-01-25T13:00:14;98913.06;;;5.97;60.38
84051;BME280;74137;50.136;19.040;2024-01-25T13:02:48;98914.14;;;5.96;60.54
84051;BME280;74137;50.136;19.040;2024-01-25T13:05:25;98909.45;;;5.96;60.70
84051;BME280;74137;50.136;19.040;2024-01-25T13:07:57;98908.95;;;5.95;60.56
84051;BME280;74137;50.136;19.040;2024-01-25T13:10:27;98906.54;;;5.93;60.68
84051;BME280;74137;50.136;19.040;2024-01-25T13:13:01;98910.05;;;5.92;60.77
84051;BME280;74137;50.136;19.040;2024-01-25T13:15:30;98913.52;;;5.93;60.79
84051;BME280;74137;50.136;19.040;2024-01-25T13:18:00;98914.58;;;5.93;60.77
84051;BME280;74137;50.136;19.040;2024-01-25T13:20:31;98919.09;;;5.93;60.84
84051;BME280;74137;50.136;19.040;2024-01-25T13:23:02;98918.18;;;5.94;60.97